DAAJ/DJG METAR and TAF weather

Enter ICAO airport designator
Station Type Date Time Source
DAAJ METAR 2022/06/30 01:00 UTC NOAA

DAAJ 300100Z 12006KT CAVOK 27/M04 Q1017


Station Type Date Time Source
DAAJ Decoded METAR 2022/06/30 01:00 UTC NOAA

Djanet, Algeria (DAAJ) 24-33N 009-28E 1054M
Jun 29, 2022 - 09:00 PM EDT / 2022.06.30 0100 UTC
Wind: from the ESE (120 degrees) at 7 MPH (6 KT):0
Visibility: greater than 7 mile(s):0
Temperature: 80 F (27 C)
Dew Point: 24 F (-4 C)
Relative Humidity: 12%
Pressure (altimeter): 30.03 in. Hg (1017 hPa)
ob: DAAJ 300100Z 12006KT CAVOK 27/M04 Q1017
cycle: 1

Station Type Date Time Source
DAAJ TAF 2022/06/29 18:33 UTC NOAA

TAF TAF DAAJ 291700Z 2918/3018 08010KT CAVOK

Example: see airport list